Penza, Russia
Current Conditions -  °F | °C
As of 12:30 AM on Sunday 26 Oct 2014 (Local Time) from UWSS Reporting Station
Clear Clear  
Wind Chill:   Ceiling: Unl
Heat Index: 18°   Visibility: 6mi
Dew Point:   Wind: 11mph
Humidity: 68%   Direction: 330°NNW
Pressure: 30.5"   Gusts: NA
Location:  53.2°N, 45°E
Report Text: UWSS 252130Z 33005MPS CAVOK M08/M13 Q1033 300///60 NOSIG RMKQFE761
Loading
Personal Weather Stations






























Interactive Weather Map
Tropical Storm Tracking
New forecast layout! Learn more

10-Day Weather Forecast

Advertisements
Track Severe Weather on mobile